sensor_id;sensor_type;location;lat;lon;timestamp;pressure;altitude;pressure_sealevel;temperature;humidity
62055;BME280;48653;51.742;-1.256;2023-05-01T00:01:55;101126.88;;;12.72;53.82
62055;BME280;48653;51.742;-1.256;2023-05-01T00:04:21;101122.83;;;13.20;52.76
62055;BME280;48653;51.742;-1.256;2023-05-01T00:06:46;101119.60;;;13.61;52.05
62055;BME280;48653;51.742;-1.256;2023-05-01T00:09:12;101119.07;;;13.29;52.20
62055;BME280;48653;51.742;-1.256;2023-05-01T00:11:37;101117.14;;;13.70;51.94
62055;BME280;48653;51.742;-1.256;2023-05-01T00:14:03;101115.69;;;13.24;53.08
62055;BME280;48653;51.742;-1.256;2023-05-01T00:16:28;101113.45;;;13.12;52.88
62055;BME280;48653;51.742;-1.256;2023-05-01T00:18:53;101109.96;;;13.35;52.45
62055;BME280;48653;51.742;-1.256;2023-05-01T00:21:19;101109.32;;;13.39;52.93
62055;BME280;48653;51.742;-1.256;2023-05-01T00:23:45;101105.25;;;13.21;52.93
62055;BME280;48653;51.742;-1.256;2023-05-01T00:26:10;101100.46;;;13.30;52.31
62055;BME280;48653;51.742;-1.256;2023-05-01T00:28:35;101104.01;;;12.85;53.54
62055;BME280;48653;51.742;-1.256;2023-05-01T00:31:00;101101.74;;;12.97;53.08
62055;BME280;48653;51.742;-1.256;2023-05-01T00:33:25;101098.58;;;13.20;52.54
62055;BME280;48653;51.742;-1.256;2023-05-01T00:35:51;101097.57;;;13.23;52.05
62055;BME280;48653;51.742;-1.256;2023-05-01T00:38:17;101093.10;;;13.27;52.15
62055;BME280;48653;51.742;-1.256;2023-05-01T00:40:42;101089.38;;;13.07;51.82
62055;BME280;48653;51.742;-1.256;2023-05-01T00:43:07;101087.27;;;13.35;51.22
62055;BME280;48653;51.742;-1.256;2023-05-01T00:45:33;101081.81;;;13.15;51.89
62055;BME280;48653;51.742;-1.256;2023-05-01T00:47:58;101079.40;;;13.10;51.33
62055;BME280;48653;51.742;-1.256;2023-05-01T00:50:24;101075.03;;;12.86;51.28
62055;BME280;48653;51.742;-1.256;2023-05-01T00:52:49;101071.54;;;12.87;51.56
62055;BME280;48653;51.742;-1.256;2023-05-01T00:55:14;101069.05;;;13.23;51.03
62055;BME280;48653;51.742;-1.256;2023-05-01T00:57:39;101066.17;;;13.24;51.18
62055;BME280;48653;51.742;-1.256;2023-05-01T01:00:06;101065.59;;;12.71;51.73
62055;BME280;48653;51.742;-1.256;2023-05-01T01:02:30;101069.12;;;12.75;51.49
62055;BME280;48653;51.742;-1.256;2023-05-01T01:04:55;101064.91;;;12.82;51.35
62055;BME280;48653;51.742;-1.256;2023-05-01T01:07:27;101065.49;;;12.53;51.78
62055;BME280;48653;51.742;-1.256;2023-05-01T01:09:54;101071.96;;;12.29;52.81
62055;BME280;48653;51.742;-1.256;2023-05-01T01:12:18;101075.14;;;12.03;53.69
62055;BME280;48653;51.742;-1.256;2023-05-01T01:14:43;101073.63;;;12.14;53.89
62055;BME280;48653;51.742;-1.256;2023-05-01T01:17:07;101072.60;;;11.94;54.74
62055;BME280;48653;51.742;-1.256;2023-05-01T01:19:51;101073.38;;;12.09;54.38
62055;BME280;48653;51.742;-1.256;2023-05-01T01:21:56;101066.91;;;11.82;55.69
62055;BME280;48653;51.742;-1.256;2023-05-01T01:24:32;101063.48;;;11.79;55.81
62055;BME280;48653;51.742;-1.256;2023-05-01T01:29:23;101054.79;;;10.71;58.68
62055;BME280;48653;51.742;-1.256;2023-05-01T01:31:42;101050.00;;;11.15;56.62
62055;BME280;48653;51.742;-1.256;2023-05-01T01:34:03;101052.78;;;11.38;56.43
62055;BME280;48653;51.742;-1.256;2023-05-01T01:36:31;101050.12;;;11.78;55.40
62055;BME280;48653;51.742;-1.256;2023-05-01T01:38:56;101044.77;;;11.10;56.54
62055;BME280;48653;51.742;-1.256;2023-05-01T01:41:19;101047.61;;;11.29;56.02
62055;BME280;48653;51.742;-1.256;2023-05-01T01:43:47;101046.48;;;11.08;56.22
62055;BME280;48653;51.742;-1.256;2023-05-01T01:46:09;101043.41;;;11.02;56.13
62055;BME280;48653;51.742;-1.256;2023-05-01T01:48:35;101044.57;;;11.26;56.27
62055;BME280;48653;51.742;-1.256;2023-05-01T01:50:57;101043.83;;;11.19;56.82
62055;BME280;48653;51.742;-1.256;2023-05-01T01:53:23;101043.02;;;11.01;57.21
62055;BME280;48653;51.742;-1.256;2023-05-01T01:55:48;101045.10;;;10.40;58.33
62055;BME280;48653;51.742;-1.256;2023-05-01T01:58:14;101047.88;;;10.04;59.36
62055;BME280;48653;51.742;-1.256;2023-05-01T02:00:39;101041.14;;;9.85;60.03
62055;BME280;48653;51.742;-1.256;2023-05-01T02:03:04;101042.90;;;9.81;60.48
62055;BME280;48653;51.742;-1.256;2023-05-01T02:05:31;101041.57;;;10.29;58.79
62055;BME280;48653;51.742;-1.256;2023-05-01T02:07:55;101035.98;;;10.20;58.47
62055;BME280;48653;51.742;-1.256;2023-05-01T02:10:21;101035.72;;;10.30;57.59
62055;BME280;48653;51.742;-1.256;2023-05-01T02:12:47;101031.78;;;10.50;56.93
62055;BME280;48653;51.742;-1.256;2023-05-01T02:15:11;101029.14;;;11.06;55.63
62055;BME280;48653;51.742;-1.256;2023-05-01T02:17:37;101023.75;;;11.05;54.46
62055;BME280;48653;51.742;-1.256;2023-05-01T02:20:02;101018.80;;;11.34;53.79
62055;BME280;48653;51.742;-1.256;2023-05-01T02:22:27;101019.52;;;11.68;53.08
62055;BME280;48653;51.742;-1.256;2023-05-01T02:24:53;101019.00;;;11.74;52.34
62055;BME280;48653;51.742;-1.256;2023-05-01T02:27:20;101016.53;;;11.67;53.13
62055;BME280;48653;51.742;-1.256;2023-05-01T02:29:43;101015.62;;;11.97;51.91
62055;BME280;48653;51.742;-1.256;2023-05-01T02:32:08;101012.10;;;11.83;52.05
62055;BME280;48653;51.742;-1.256;2023-05-01T02:34:34;101008.48;;;12.14;51.82
62055;BME280;48653;51.742;-1.256;2023-05-01T02:37:00;101007.10;;;11.66;52.09
62055;BME280;48653;51.742;-1.256;2023-05-01T02:39:25;101000.48;;;11.97;51.29
62055;BME280;48653;51.742;-1.256;2023-05-01T02:41:51;101000.17;;;11.86;51.36
62055;BME280;48653;51.742;-1.256;2023-05-01T02:44:18;100998.88;;;11.75;51.57
62055;BME280;48653;51.742;-1.256;2023-05-01T02:46:44;100996.79;;;11.54;51.67
62055;BME280;48653;51.742;-1.256;2023-05-01T02:49:08;100998.86;;;11.65;51.35
62055;BME280;48653;51.742;-1.256;2023-05-01T02:51:33;100994.13;;;11.79;50.66
62055;BME280;48653;51.742;-1.256;2023-05-01T02:53:58;100989.27;;;11.51;50.33
62055;BME280;48653;51.742;-1.256;2023-05-01T02:56:24;100995.04;;;11.91;50.32
62055;BME280;48653;51.742;-1.256;2023-05-01T02:58:49;100995.28;;;11.83;49.85
62055;BME280;48653;51.742;-1.256;2023-05-01T03:01:14;100993.70;;;12.31;49.08
62055;BME280;48653;51.742;-1.256;2023-05-01T03:03:39;100994.64;;;11.85;49.15
62055;BME280;48653;51.742;-1.256;2023-05-01T03:06:04;100994.90;;;11.93;49.63
62055;BME280;48653;51.742;-1.256;2023-05-01T03:08:30;100995.65;;;11.50;49.81
62055;BME280;48653;51.742;-1.256;2023-05-01T03:10:55;100991.41;;;11.95;50.03
62055;BME280;48653;51.742;-1.256;2023-05-01T03:13:20;100989.23;;;11.52;49.99
62055;BME280;48653;51.742;-1.256;2023-05-01T03:15:45;100985.15;;;11.98;49.98
62055;BME280;48653;51.742;-1.256;2023-05-01T03:18:10;100985.69;;;11.84;50.32
62055;BME280;48653;51.742;-1.256;2023-05-01T03:20:35;100987.21;;;11.22;50.83
62055;BME280;48653;51.742;-1.256;2023-05-01T03:23:01;100980.24;;;11.43;49.75
62055;BME280;48653;51.742;-1.256;2023-05-01T03:25:27;100980.89;;;12.26;49.55
62055;BME280;48653;51.742;-1.256;2023-05-01T03:27:52;100979.08;;;12.16;49.46
62055;BME280;48653;51.742;-1.256;2023-05-01T03:30:17;100978.94;;;12.14;49.68
62055;BME280;48653;51.742;-1.256;2023-05-01T03:32:43;100975.07;;;11.70;49.44
62055;BME280;48653;51.742;-1.256;2023-05-01T03:35:08;100976.28;;;11.84;49.33
62055;BME280;48653;51.742;-1.256;2023-05-01T03:37:34;100971.31;;;11.80;50.10
62055;BME280;48653;51.742;-1.256;2023-05-01T03:39:58;100969.87;;;11.97;50.11
62055;BME280;48653;51.742;-1.256;2023-05-01T03:42:24;100969.14;;;11.99;50.31
62055;BME280;48653;51.742;-1.256;2023-05-01T03:44:50;100970.56;;;12.35;49.94
62055;BME280;48653;51.742;-1.256;2023-05-01T03:47:15;100967.53;;;11.34;51.15
62055;BME280;48653;51.742;-1.256;2023-05-01T03:49:41;100968.21;;;11.75;51.07
62055;BME280;48653;51.742;-1.256;2023-05-01T03:52:07;100968.03;;;11.89;51.34
62055;BME280;48653;51.742;-1.256;2023-05-01T03:54:32;100969.26;;;11.51;51.33
62055;BME280;48653;51.742;-1.256;2023-05-01T03:56:57;100970.00;;;11.53;51.68
62055;BME280;48653;51.742;-1.256;2023-05-01T03:59:22;100970.33;;;11.80;51.62
62055;BME280;48653;51.742;-1.256;2023-05-01T04:01:48;100968.22;;;11.62;51.92
62055;BME280;48653;51.742;-1.256;2023-05-01T04:04:14;100966.40;;;11.78;51.66
62055;BME280;48653;51.742;-1.256;2023-05-01T04:06:38;100967.44;;;11.73;52.27
62055;BME280;48653;51.742;-1.256;2023-05-01T04:09:04;100966.24;;;11.84;52.17
62055;BME280;48653;51.742;-1.256;2023-05-01T04:11:29;100966.51;;;11.63;52.24
62055;BME280;48653;51.742;-1.256;2023-05-01T04:13:54;100965.02;;;11.25;54.30
62055;BME280;48653;51.742;-1.256;2023-05-01T04:16:20;100970.60;;;11.40;53.73
62055;BME280;48653;51.742;-1.256;2023-05-01T04:18:46;100968.04;;;11.75;52.94
62055;BME280;48653;51.742;-1.256;2023-05-01T04:21:11;100971.68;;;11.55;53.36
62055;BME280;48653;51.742;-1.256;2023-05-01T04:23:36;100970.58;;;11.65;53.17
62055;BME280;48653;51.742;-1.256;2023-05-01T04:26:01;100970.27;;;11.39;53.44
62055;BME280;48653;51.742;-1.256;2023-05-01T04:28:27;100971.20;;;11.38;53.38
62055;BME280;48653;51.742;-1.256;2023-05-01T04:30:52;100967.45;;;11.89;52.70
62055;BME280;48653;51.742;-1.256;2023-05-01T04:33:17;100969.47;;;11.34;53.67
62055;BME280;48653;51.742;-1.256;2023-05-01T04:35:43;100969.10;;;11.65;53.14
62055;BME280;48653;51.742;-1.256;2023-05-01T04:38:08;100973.40;;;11.64;53.19
62055;BME280;48653;51.742;-1.256;2023-05-01T04:40:34;100975.65;;;11.54;53.26
62055;BME280;48653;51.742;-1.256;2023-05-01T04:43:00;100974.09;;;11.86;53.43
62055;BME280;48653;51.742;-1.256;2023-05-01T04:45:25;100976.51;;;12.20;52.65
62055;BME280;48653;51.742;-1.256;2023-05-01T04:47:51;100981.41;;;11.30;54.49
62055;BME280;48653;51.742;-1.256;2023-05-01T04:50:16;100984.81;;;11.68;54.15
62055;BME280;48653;51.742;-1.256;2023-05-01T04:52:41;100981.96;;;10.36;57.36
62055;BME280;48653;51.742;-1.256;2023-05-01T04:55:08;100984.80;;;11.35;55.32
62055;BME280;48653;51.742;-1.256;2023-05-01T04:57:31;100979.14;;;10.11;57.91
62055;BME280;48653;51.742;-1.256;2023-05-01T04:59:57;100984.33;;;11.34;55.44
62055;BME280;48653;51.742;-1.256;2023-05-01T05:02:22;100993.70;;;11.79;54.31
62055;BME280;48653;51.742;-1.256;2023-05-01T05:04:48;100992.59;;;10.77;56.74
62055;BME280;48653;51.742;-1.256;2023-05-01T05:07:13;100991.91;;;10.15;57.89
62055;BME280;48653;51.742;-1.256;2023-05-01T05:09:39;100994.46;;;11.48;55.39
62055;BME280;48653;51.742;-1.256;2023-05-01T05:12:04;101000.85;;;11.74;54.05
62055;BME280;48653;51.742;-1.256;2023-05-01T05:14:29;100997.10;;;10.97;56.28
62055;BME280;48653;51.742;-1.256;2023-05-01T05:16:55;100996.95;;;11.22;55.07
62055;BME280;48653;51.742;-1.256;2023-05-01T05:19:20;100997.86;;;10.92;55.83
62055;BME280;48653;51.742;-1.256;2023-05-01T05:21:46;100999.00;;;10.39;57.55
62055;BME280;48653;51.742;-1.256;2023-05-01T05:24:12;100998.79;;;9.92;59.28
62055;BME280;48653;51.742;-1.256;2023-05-01T05:26:37;100997.52;;;10.42;58.29
62055;BME280;48653;51.742;-1.256;2023-05-01T05:29:03;100995.66;;;10.38;58.73
62055;BME280;48653;51.742;-1.256;2023-05-01T05:31:28;100998.78;;;10.78;57.92
62055;BME280;48653;51.742;-1.256;2023-05-01T05:33:53;100998.53;;;11.18;56.20
62055;BME280;48653;51.742;-1.256;2023-05-01T05:36:19;100998.94;;;11.07;56.42
62055;BME280;48653;51.742;-1.256;2023-05-01T05:38:44;100997.33;;;11.53;56.17
62055;BME280;48653;51.742;-1.256;2023-05-01T05:41:10;101001.41;;;11.30;55.11
62055;BME280;48653;51.742;-1.256;2023-05-01T05:43:35;101003.39;;;10.64;58.46
62055;BME280;48653;51.742;-1.256;2023-05-01T05:46:00;101002.40;;;11.03;57.07
62055;BME280;48653;51.742;-1.256;2023-05-01T05:48:26;101007.77;;;11.45;55.45
62055;BME280;48653;51.742;-1.256;2023-05-01T05:50:51;101012.71;;;11.73;55.39
62055;BME280;48653;51.742;-1.256;2023-05-01T05:53:17;101010.19;;;11.30;56.10
62055;BME280;48653;51.742;-1.256;2023-05-01T05:55:42;101009.54;;;11.44;55.98
62055;BME280;48653;51.742;-1.256;2023-05-01T05:58:07;101010.06;;;11.54;55.47
62055;BME280;48653;51.742;-1.256;2023-05-01T06:00:32;101008.33;;;11.89;54.79
62055;BME280;48653;51.742;-1.256;2023-05-01T06:02:58;101009.36;;;11.33;56.48
62055;BME280;48653;51.742;-1.256;2023-05-01T06:05:23;101005.79;;;11.86;55.52
62055;BME280;48653;51.742;-1.256;2023-05-01T06:07:48;101004.84;;;12.08;54.97
62055;BME280;48653;51.742;-1.256;2023-05-01T06:10:14;101006.31;;;12.31;53.94
62055;BME280;48653;51.742;-1.256;2023-05-01T06:12:39;101006.86;;;11.65;55.82
62055;BME280;48653;51.742;-1.256;2023-05-01T06:15:05;101004.32;;;12.41;54.76
62055;BME280;48653;51.742;-1.256;2023-05-01T06:17:30;101005.20;;;11.97;56.31
62055;BME280;48653;51.742;-1.256;2023-05-01T06:19:56;101003.81;;;11.81;55.76
62055;BME280;48653;51.742;-1.256;2023-05-01T06:22:21;101004.76;;;11.96;55.96
62055;BME280;48653;51.742;-1.256;2023-05-01T06:24:46;101009.25;;;12.16;54.97
62055;BME280;48653;51.742;-1.256;2023-05-01T06:27:11;101012.46;;;11.90;55.23
62055;BME280;48653;51.742;-1.256;2023-05-01T06:29:37;101012.78;;;12.85;53.82
62055;BME280;48653;51.742;-1.256;2023-05-01T06:32:02;101012.72;;;12.45;54.42
62055;BME280;48653;51.742;-1.256;2023-05-01T06:34:27;101016.91;;;12.33;54.43
62055;BME280;48653;51.742;-1.256;2023-05-01T06:36:52;101016.90;;;12.65;53.53
62055;BME280;48653;51.742;-1.256;2023-05-01T06:39:18;101012.78;;;13.05;52.86
62055;BME280;48653;51.742;-1.256;2023-05-01T06:41:45;101013.00;;;12.48;54.05
62055;BME280;48653;51.742;-1.256;2023-05-01T06:44:08;101014.58;;;13.21;52.86
62055;BME280;48653;51.742;-1.256;2023-05-01T06:46:34;101014.94;;;12.97;52.88
62055;BME280;48653;51.742;-1.256;2023-05-01T06:48:59;101014.46;;;13.32;52.81
62055;BME280;48653;51.742;-1.256;2023-05-01T06:51:24;101016.46;;;13.33;52.72
62055;BME280;48653;51.742;-1.256;2023-05-01T06:53:50;101016.25;;;13.35;53.11
62055;BME280;48653;51.742;-1.256;2023-05-01T06:56:15;101021.74;;;13.08;53.48
62055;BME280;48653;51.742;-1.256;2023-05-01T06:58:41;101019.75;;;13.50;52.95
62055;BME280;48653;51.742;-1.256;2023-05-01T07:01:07;101025.54;;;12.77;53.95
62055;BME280;48653;51.742;-1.256;2023-05-01T07:03:32;101021.95;;;13.11;53.57
62055;BME280;48653;51.742;-1.256;2023-05-01T07:05:58;101023.88;;;13.07;53.45
62055;BME280;48653;51.742;-1.256;2023-05-01T07:08:23;101024.18;;;13.37;53.14
62055;BME280;48653;51.742;-1.256;2023-05-01T07:10:48;101032.33;;;12.79;54.05
62055;BME280;48653;51.742;-1.256;2023-05-01T07:13:14;101035.08;;;12.79;54.05
62055;BME280;48653;51.742;-1.256;2023-05-01T07:15:39;101036.07;;;12.67;55.36
62055;BME280;48653;51.742;-1.256;2023-05-01T07:18:04;101037.92;;;12.12;55.72
62055;BME280;48653;51.742;-1.256;2023-05-01T07:20:30;101042.15;;;12.24;55.81
62055;BME280;48653;51.742;-1.256;2023-05-01T07:22:55;101041.31;;;13.09;54.05
62055;BME280;48653;51.742;-1.256;2023-05-01T07:25:21;101044.80;;;13.31;53.67
62055;BME280;48653;51.742;-1.256;2023-05-01T07:27:46;101047.26;;;12.97;54.46
62055;BME280;48653;51.742;-1.256;2023-05-01T07:30:12;101050.35;;;13.20;53.78
62055;BME280;48653;51.742;-1.256;2023-05-01T07:32:37;101046.19;;;13.28;53.84
62055;BME280;48653;51.742;-1.256;2023-05-01T07:35:03;101052.59;;;12.87;54.17
62055;BME280;48653;51.742;-1.256;2023-05-01T07:37:29;101053.88;;;12.92;54.86
62055;BME280;48653;51.742;-1.256;2023-05-01T07:39:55;101059.17;;;12.70;55.01
62055;BME280;48653;51.742;-1.256;2023-05-01T07:42:19;101060.02;;;12.92;54.93
62055;BME280;48653;51.742;-1.256;2023-05-01T07:44:44;101061.99;;;12.91;55.26
62055;BME280;48653;51.742;-1.256;2023-05-01T07:47:10;101060.64;;;12.48;55.99
62055;BME280;48653;51.742;-1.256;2023-05-01T07:49:36;101054.00;;;13.41;54.35
62055;BME280;48653;51.742;-1.256;2023-05-01T07:52:01;101055.30;;;13.24;54.58
62055;BME280;48653;51.742;-1.256;2023-05-01T07:54:26;101054.15;;;13.62;54.11
62055;BME280;48653;51.742;-1.256;2023-05-01T07:56:52;101055.17;;;13.52;55.21
62055;BME280;48653;51.742;-1.256;2023-05-01T07:59:17;101054.51;;;14.60;54.23
62055;BME280;48653;51.742;-1.256;2023-05-01T08:01:43;101055.68;;;14.02;53.41
62055;BME280;48653;51.742;-1.256;2023-05-01T08:04:08;101055.99;;;14.75;53.20
62055;BME280;48653;51.742;-1.256;2023-05-01T08:06:33;101054.41;;;14.77;52.39
62055;BME280;48653;51.742;-1.256;2023-05-01T08:08:59;101056.69;;;14.82;52.72
62055;BME280;48653;51.742;-1.256;2023-05-01T08:11:24;101054.73;;;14.97;52.73
62055;BME280;48653;51.742;-1.256;2023-05-01T08:13:49;101061.79;;;14.32;53.26
62055;BME280;48653;51.742;-1.256;2023-05-01T08:16:15;101060.16;;;14.17;52.89
62055;BME280;48653;51.742;-1.256;2023-05-01T08:18:40;101061.82;;;14.66;51.45
62055;BME280;48653;51.742;-1.256;2023-05-01T08:21:05;101059.18;;;14.87;51.63
62055;BME280;48653;51.742;-1.256;2023-05-01T08:23:31;101056.60;;;14.79;51.93
62055;BME280;48653;51.742;-1.256;2023-05-01T08:25:56;101053.87;;;14.48;51.60
62055;BME280;48653;51.742;-1.256;2023-05-01T08:28:22;101058.35;;;15.33;51.20
62055;BME280;48653;51.742;-1.256;2023-05-01T08:30:47;101060.18;;;14.52;51.09
62055;BME280;48653;51.742;-1.256;2023-05-01T08:33:13;101058.04;;;14.69;50.79
62055;BME280;48653;51.742;-1.256;2023-05-01T08:35:38;101056.85;;;15.24;49.90
62055;BME280;48653;51.742;-1.256;2023-05-01T08:38:04;101060.26;;;15.12;49.91
62055;BME280;48653;51.742;-1.256;2023-05-01T08:40:31;101063.56;;;15.02;50.81
62055;BME280;48653;51.742;-1.256;2023-05-01T08:42:54;101065.85;;;14.46;51.20
62055;BME280;48653;51.742;-1.256;2023-05-01T08:45:20;101070.05;;;15.09;50.18
62055;BME280;48653;51.742;-1.256;2023-05-01T08:47:45;101069.44;;;15.30;49.55
62055;BME280;48653;51.742;-1.256;2023-05-01T08:50:10;101067.55;;;15.40;50.15
62055;BME280;48653;51.742;-1.256;2023-05-01T08:52:37;101068.32;;;15.34;48.58
62055;BME280;48653;51.742;-1.256;2023-05-01T08:55:01;101070.61;;;16.15;47.91
62055;BME280;48653;51.742;-1.256;2023-05-01T08:57:26;101071.96;;;15.50;48.11
62055;BME280;48653;51.742;-1.256;2023-05-01T08:59:52;101073.07;;;16.20;47.00
62055;BME280;48653;51.742;-1.256;2023-05-01T09:02:16;101078.16;;;15.39;47.72
62055;BME280;48653;51.742;-1.256;2023-05-01T09:04:41;101082.25;;;15.48;48.19
62055;BME280;48653;51.742;-1.256;2023-05-01T09:07:07;101083.59;;;14.85;49.96
62055;BME280;48653;51.742;-1.256;2023-05-01T09:09:32;101084.79;;;14.91;49.39
62055;BME280;48653;51.742;-1.256;2023-05-01T09:11:59;101092.63;;;13.96;49.85
62055;BME280;48653;51.742;-1.256;2023-05-01T09:14:21;101087.06;;;14.48;48.37
62055;BME280;48653;51.742;-1.256;2023-05-01T09:16:46;101090.10;;;14.80;47.61
62055;BME280;48653;51.742;-1.256;2023-05-01T09:19:11;101094.25;;;15.33;46.73
62055;BME280;48653;51.742;-1.256;2023-05-01T09:21:36;101095.21;;;16.42;45.90
62055;BME280;48653;51.742;-1.256;2023-05-01T09:24:01;101098.54;;;15.40;46.56
62055;BME280;48653;51.742;-1.256;2023-05-01T09:26:27;101099.96;;;15.51;45.66
62055;BME280;48653;51.742;-1.256;2023-05-01T09:28:52;101100.82;;;15.73;45.45
62055;BME280;48653;51.742;-1.256;2023-05-01T09:31:22;101099.16;;;15.82;45.56
62055;BME280;48653;51.742;-1.256;2023-05-01T09:33:50;101099.73;;;16.23;44.42
62055;BME280;48653;51.742;-1.256;2023-05-01T09:36:07;101098.05;;;15.96;45.16
62055;BME280;48653;51.742;-1.256;2023-05-01T09:38:32;101101.29;;;16.20;44.84
62055;BME280;48653;51.742;-1.256;2023-05-01T09:41:03;101101.05;;;16.35;44.67
62055;BME280;48653;51.742;-1.256;2023-05-01T09:43:24;101101.41;;;15.57;44.32
62055;BME280;48653;51.742;-1.256;2023-05-01T09:45:58;101101.22;;;15.37;44.80
62055;BME280;48653;51.742;-1.256;2023-05-01T09:48:13;101107.64;;;16.55;44.29
62055;BME280;48653;51.742;-1.256;2023-05-01T09:50:39;101108.11;;;16.99;42.48
62055;BME280;48653;51.742;-1.256;2023-05-01T09:53:04;101106.59;;;17.68;41.92
62055;BME280;48653;51.742;-1.256;2023-05-01T09:55:28;101108.04;;;17.60;42.06
62055;BME280;48653;51.742;-1.256;2023-05-01T09:57:53;101106.92;;;16.70;43.16
62055;BME280;48653;51.742;-1.256;2023-05-01T10:00:19;101101.72;;;18.03;42.41
62055;BME280;48653;51.742;-1.256;2023-05-01T10:02:45;101103.03;;;17.81;42.11
62055;BME280;48653;51.742;-1.256;2023-05-01T10:05:10;101107.71;;;17.84;41.44
62055;BME280;48653;51.742;-1.256;2023-05-01T10:07:34;101101.16;;;17.67;41.89
62055;BME280;48653;51.742;-1.256;2023-05-01T10:12:25;101103.83;;;17.52;41.04
62055;BME280;48653;51.742;-1.256;2023-05-01T10:14:51;101102.81;;;17.98;40.57
62055;BME280;48653;51.742;-1.256;2023-05-01T10:17:18;101104.39;;;17.85;42.69
62055;BME280;48653;51.742;-1.256;2023-05-01T10:19:39;101101.42;;;16.80;42.12
62055;BME280;48653;51.742;-1.256;2023-05-01T10:22:05;101106.50;;;17.70;41.57
62055;BME280;48653;51.742;-1.256;2023-05-01T10:24:30;101107.04;;;17.37;41.56
62055;BME280;48653;51.742;-1.256;2023-05-01T10:26:55;101112.24;;;16.95;40.93
62055;BME280;48653;51.742;-1.256;2023-05-01T10:29:22;101110.17;;;17.20;40.41
62055;BME280;48653;51.742;-1.256;2023-05-01T10:31:45;101115.91;;;16.52;40.55
62055;BME280;48653;51.742;-1.256;2023-05-01T10:34:11;101114.48;;;17.13;41.31
62055;BME280;48653;51.742;-1.256;2023-05-01T10:36:41;101113.91;;;17.53;40.79
62055;BME280;48653;51.742;-1.256;2023-05-01T10:39:00;101116.59;;;17.50;40.40
62055;BME280;48653;51.742;-1.256;2023-05-01T10:46:25;101117.58;;;17.11;42.44
62055;BME280;48653;51.742;-1.256;2023-05-01T10:48:52;101121.13;;;15.94;43.12
62055;BME280;48653;51.742;-1.256;2023-05-01T10:51:07;101120.64;;;16.27;43.73
62055;BME280;48653;51.742;-1.256;2023-05-01T10:53:30;101126.65;;;16.43;43.99
62055;BME280;48653;51.742;-1.256;2023-05-01T10:55:55;101130.68;;;15.48;45.64
62055;BME280;48653;51.742;-1.256;2023-05-01T11:10:26;101138.46;;;17.08;41.42
62055;BME280;48653;51.742;-1.256;2023-05-01T11:12:51;101134.23;;;17.57;41.17
62055;BME280;48653;51.742;-1.256;2023-05-01T11:15:26;101141.53;;;16.98;42.19
62055;BME280;48653;51.742;-1.256;2023-05-01T11:17:44;101140.06;;;17.09;41.16
62055;BME280;48653;51.742;-1.256;2023-05-01T11:20:07;101129.54;;;17.71;40.59
62055;BME280;48653;51.742;-1.256;2023-05-01T11:22:31;101129.57;;;17.95;40.20
62055;BME280;48653;51.742;-1.256;2023-05-01T11:24:56;101134.35;;;16.91;40.61
62055;BME280;48653;51.742;-1.256;2023-05-01T11:27:21;101126.98;;;16.63;41.34
62055;BME280;48653;51.742;-1.256;2023-05-01T11:29:49;101127.51;;;18.07;40.89
62055;BME280;48653;51.742;-1.256;2023-05-01T11:32:17;101128.80;;;17.26;40.34
62055;BME280;48653;51.742;-1.256;2023-05-01T11:34:37;101127.55;;;17.85;40.22
62055;BME280;48653;51.742;-1.256;2023-05-01T11:37:02;101129.65;;;16.83;40.72
62055;BME280;48653;51.742;-1.256;2023-05-01T11:39:27;101127.45;;;16.39;41.41
62055;BME280;48653;51.742;-1.256;2023-05-01T11:42:05;101129.85;;;16.30;40.99
62055;BME280;48653;51.742;-1.256;2023-05-01T11:44:17;101130.46;;;16.85;39.74
62055;BME280;48653;51.742;-1.256;2023-05-01T11:46:42;101132.82;;;17.23;39.74
62055;BME280;48653;51.742;-1.256;2023-05-01T11:49:07;101133.09;;;17.16;40.33
62055;BME280;48653;51.742;-1.256;2023-05-01T11:51:32;101131.16;;;16.28;42.14
62055;BME280;48653;51.742;-1.256;2023-05-01T11:53:58;101132.84;;;18.05;40.09
62055;BME280;48653;51.742;-1.256;2023-05-01T11:56:22;101130.24;;;17.85;40.02
62055;BME280;48653;51.742;-1.256;2023-05-01T11:58:47;101136.01;;;17.93;38.53
62055;BME280;48653;51.742;-1.256;2023-05-01T12:01:12;101133.68;;;17.79;38.35
62055;BME280;48653;51.742;-1.256;2023-05-01T12:03:42;101138.67;;;17.82;39.51
62055;BME280;48653;51.742;-1.256;2023-05-01T12:06:03;101138.94;;;17.48;39.26
62055;BME280;48653;51.742;-1.256;2023-05-01T12:08:27;101141.40;;;17.23;39.23
62055;BME280;48653;51.742;-1.256;2023-05-01T12:10:54;101145.68;;;17.91;39.22
62055;BME280;48653;51.742;-1.256;2023-05-01T12:13:18;101149.12;;;17.59;39.92
62055;BME280;48653;51.742;-1.256;2023-05-01T12:15:44;101151.23;;;17.60;38.97
62055;BME280;48653;51.742;-1.256;2023-05-01T12:18:08;101150.67;;;16.04;41.02
62055;BME280;48653;51.742;-1.256;2023-05-01T12:20:34;101151.56;;;17.24;40.75
62055;BME280;48653;51.742;-1.256;2023-05-01T12:22:58;101149.65;;;17.34;40.49
62055;BME280;48653;51.742;-1.256;2023-05-01T12:25:28;101151.57;;;16.41;41.01
62055;BME280;48653;51.742;-1.256;2023-05-01T12:27:49;101157.04;;;15.90;42.08
62055;BME280;48653;51.742;-1.256;2023-05-01T12:30:23;101161.59;;;17.06;40.92
62055;BME280;48653;51.742;-1.256;2023-05-01T12:32:39;101155.94;;;16.87;41.20
62055;BME280;48653;51.742;-1.256;2023-05-01T12:35:13;101155.85;;;15.64;42.44
62055;BME280;48653;51.742;-1.256;2023-05-01T12:37:30;101153.53;;;16.70;41.27
62055;BME280;48653;51.742;-1.256;2023-05-01T12:39:54;101150.73;;;17.55;40.78
62055;BME280;48653;51.742;-1.256;2023-05-01T12:42:19;101154.34;;;18.05;40.22
62055;BME280;48653;51.742;-1.256;2023-05-01T12:44:44;101154.06;;;17.66;40.65
62055;BME280;48653;51.742;-1.256;2023-05-01T12:47:11;101164.08;;;17.30;40.22
62055;BME280;48653;51.742;-1.256;2023-05-01T12:49:35;101158.73;;;17.86;39.68
62055;BME280;48653;51.742;-1.256;2023-05-01T12:52:00;101161.95;;;17.87;38.38